Time;durP1;ratioP1;P1;durP2;ratioP2;P2;SDS_P1;SDS_P2;PMS_P1;PMS_P2;Temp;Humidity;BMP_temperature;BMP_pressure;BME280_temperature;BME280_humidity;BME280_pressure;Samples;Min_cycle;Max_cycle;Signal;HPM_P1;HPM_P2
2022/08/22 00:02:36;;;;;;;11.82;4.43;;;;;;;19.73;71.15;101497.41;5093335;28;20092;-57
2022/08/22 00:05:36;;;;;;;10.55;3.83;;;;;;;19.70;71.29;101493.31;5092204;28;20084;-58
2022/08/22 00:08:22;;;;;;;9.88;3.78;;;;;;;19.70;71.59;101493.31;5090268;28;20106;-53
2022/08/22 00:11:24;;;;;;;10.85;4.00;;;;;;;19.74;71.48;101499.03;5093165;28;20047;-54
2022/08/22 00:13:55;;;;;;;11.27;4.60;;;;;;;19.70;71.78;101498.00;5092547;28;20048;-52
2022/08/22 00:16:43;;;;;;;10.98;4.05;;;;;;;19.66;72.10;101500.56;5092868;28;20040;-55
2022/08/22 00:19:11;;;;;;;11.63;3.83;;;;;;;19.62;72.37;101495.97;5075211;28;20080;-56
2022/08/22 00:21:56;;;;;;;11.52;4.07;;;;;;;19.53;72.71;101493.97;5093205;28;20440;-53
2022/08/22 00:24:28;;;;;;;12.63;4.20;;;;;;;19.51;73.23;101490.69;5074617;28;20378;-53
2022/08/22 00:27:03;;;;;;;13.23;3.97;;;;;;;19.50;73.27;101494.56;5092583;28;20040;-54
2022/08/22 00:29:50;;;;;;;10.10;4.00;;;;;;;19.48;73.53;101496.84;5075508;28;20040;-53
2022/08/22 00:32:40;;;;;;;10.80;4.10;;;;;;;19.46;73.69;101493.56;5075284;28;20060;-55
2022/08/22 00:35:22;;;;;;;10.32;3.63;;;;;;;19.48;73.66;101496.84;5077198;28;20044;-54
2022/08/22 00:38:11;;;;;;;10.63;4.63;;;;;;;19.51;73.28;101496.22;5089289;28;20052;-54
2022/08/22 00:41:25;;;;;;;10.43;4.32;;;;;;;19.52;73.33;101495.06;5085516;28;20425;-57
2022/08/22 00:44:02;;;;;;;10.20;4.07;;;;;;;19.51;73.35;101498.97;5079614;28;20051;-54
2022/08/22 00:46:55;;;;;;;9.82;4.03;;;;;;;19.50;73.46;101500.09;5092286;28;20144;-57
2022/08/22 00:49:59;;;;;;;13.20;5.10;;;;;;;19.48;73.62;101491.31;5076167;28;20044;-58
2022/08/22 00:52:45;;;;;;;16.15;4.78;;;;;;;19.45;73.86;101493.88;5080384;28;20081;-58
2022/08/22 00:55:24;;;;;;;13.45;4.13;;;;;;;19.42;74.06;101506.38;5097800;28;20123;-57
2022/08/22 00:58:07;;;;;;;12.38;5.28;;;;;;;19.39;74.23;101501.47;5101628;28;20051;-58
2022/08/22 01:00:43;;;;;;;11.65;4.35;;;;;;;19.40;74.42;101511.38;5095700;28;20051;-57
2022/08/22 01:03:47;;;;;;;10.95;4.40;;;;;;;19.43;74.08;101510.75;5078890;28;20101;-56
2022/08/22 01:06:35;;;;;;;17.08;4.90;;;;;;;19.40;74.44;101511.38;5085812;28;20098;-57
2022/08/22 01:09:13;;;;;;;12.05;4.47;;;;;;;19.36;74.59;101505.69;5096074;28;20039;-57
2022/08/22 01:11:56;;;;;;;12.07;4.03;;;;;;;19.33;74.91;101511.00;5096633;28;20135;-58
2022/08/22 01:14:33;;;;;;;13.18;4.03;;;;;;;19.28;75.15;101509.16;5092236;28;20040;-57
2022/08/22 01:17:39;;;;;;;13.50;4.63;;;;;;;19.22;75.55;101504.91;5078877;28;20036;-58
2022/08/22 01:20:07;;;;;;;;;;;;;;;19.18;75.90;101508.59;5096051;28;20044;-57
2022/08/22 01:22:56;;;;;;;13.23;4.95;;;;;;;19.15;76.29;101510.03;5095944;28;19935;-54
2022/08/22 01:26:02;;;;;;;10.73;4.20;;;;;;;19.12;76.44;101505.09;5096256;28;20037;-55
2022/08/22 01:28:51;;;;;;;15.32;4.18;;;;;;;19.11;76.74;101504.28;5072762;28;20487;-57
2022/08/22 01:31:40;;;;;;;12.93;4.22;;;;;;;19.09;76.80;101506.53;5095687;28;20040;-58
2022/08/22 01:34:45;;;;;;;12.55;4.00;;;;;;;19.11;76.77;101507.03;5072878;28;20063;-55
2022/08/22 01:37:18;;;;;;;;;;;;;;;19.14;76.78;101509.19;5096265;28;20060;-50
2022/08/22 01:39:46;;;;;;;11.10;4.40;;;;;;;19.14;76.74;101506.41;5095576;28;19920;-54
2022/08/22 01:42:33;;;;;;;14.25;4.82;;;;;;;19.13;76.87;101499.28;5095658;28;20044;-55
2022/08/22 01:45:35;;;;;;;9.98;3.80;;;;;;;19.12;76.77;101496.81;5081771;28;20040;-56
2022/08/22 01:48:09;;;;;;;10.35;4.15;;;;;;;19.09;77.30;101506.53;5094512;28;20520;-58
2022/08/22 01:50:55;;;;;;;12.73;3.97;;;;;;;19.10;77.29;101494.38;5095494;28;20040;-55
2022/08/22 01:54:00;;;;;;;11.57;3.85;;;;;;;19.14;77.11;101497.31;5077585;28;20044;-58
2022/08/22 01:56:34;;;;;;;10.55;3.70;;;;;;;19.19;77.09;101496.41;5077749;28;20075;-56
2022/08/22 01:59:06;;;;;;;13.55;4.28;;;;;;;19.19;76.82;101499.16;5077842;28;20498;-54
2022/08/22 02:01:56;;;;;;;11.43;4.03;;;;;;;19.14;76.98;101495.38;5076928;28;20033;-55
2022/08/22 02:04:56;;;;;;;10.68;4.25;;;;;;;19.06;77.67;101492.53;5071620;28;20101;-54
2022/08/22 02:07:45;;;;;;;9.52;4.10;;;;;;;19.01;77.89;101496.22;5095501;28;20032;-54
2022/08/22 02:10:19;;;;;;;13.68;4.15;;;;;;;19.00;78.28;101491.84;5095475;28;20044;-55
2022/08/22 02:13:11;;;;;;;10.50;3.80;;;;;;;19.01;78.28;101496.22;5094495;28;20420;-56
2022/08/22 02:15:48;;;;;;;12.07;4.20;;;;;;;19.02;78.46;101497.03;5095578;28;20040;-54
2022/08/22 02:18:40;;;;;;;9.32;3.90;;;;;;;18.99;78.66;101492.13;5093434;28;20044;-55
2022/08/22 02:21:41;;;;;;;10.25;4.05;;;;;;;18.96;78.85;101495.53;5060433;28;20491;-58
2022/08/22 02:24:32;;;;;;;19.63;4.18;;;;;;;18.91;79.46;101490.91;5076924;28;20047;-56
2022/08/22 02:27:24;;;;;;;12.43;4.05;;;;;;;18.87;79.91;101492.66;5094818;28;20044;-57
2022/08/22 02:30:47;;;;;;;12.30;3.88;;;;;;;18.82;80.20;101490.00;5094986;28;20058;-56
2022/08/22 02:33:42;;;;;;;9.30;3.90;;;;;;;18.84;80.25;101483.03;5055294;28;20048;-57
2022/08/22 02:36:31;;;;;;;11.45;3.72;;;;;;;18.89;80.21;101484.88;5076915;28;20441;-54
2022/08/22 02:39:20;;;;;;;9.50;4.00;;;;;;;18.93;79.92;101480.38;5076883;28;20044;-56
2022/08/22 02:42:10;;;;;;;13.25;3.92;;;;;;;18.92;79.96;101478.72;5094649;28;20429;-53
2022/08/22 02:44:55;;;;;;;11.68;4.18;;;;;;;18.89;80.33;101476.59;5075569;28;20047;-56
2022/08/22 02:47:28;;;;;;;13.25;4.03;;;;;;;18.92;80.13;101478.72;5063452;28;20047;-54
2022/08/22 02:49:56;;;;;;;15.10;3.47;;;;;;;18.90;79.96;101479.03;5094961;28;20040;-53
2022/08/22 02:52:28;;;;;;;10.63;4.15;;;;;;;18.90;80.14;101470.75;5094388;28;20097;-53
2022/08/22 02:55:03;;;;;;;9.98;4.25;;;;;;;18.90;80.11;101481.78;5093708;28;20047;-51
2022/08/22 02:57:51;;;;;;;11.55;3.83;;;;;;;18.86;80.17;101478.03;5093114;28;20074;-54
2022/08/22 03:00:22;;;;;;;10.48;3.65;;;;;;;18.83;80.63;101472.28;5076586;28;20040;-56
2022/08/22 03:03:20;;;;;;;11.68;3.65;;;;;;;18.81;80.75;101478.16;5094524;28;20044;-58
2022/08/22 03:06:05;;;;;;;9.50;3.50;;;;;;;18.84;80.81;101468.44;5094155;28;20093;-56
2022/08/22 03:08:39;;;;;;;9.93;3.70;;;;;;;18.81;81.00;101472.63;5091041;28;20074;-56
2022/08/22 03:11:25;;;;;;;20.98;3.85;;;;;;;18.78;81.29;101466.88;5070065;28;20513;-57
2022/08/22 03:14:12;;;;;;;13.00;3.72;;;;;;;18.81;81.26;101466.25;5076104;28;20047;-56
2022/08/22 03:16:57;;;;;;;8.90;3.75;;;;;;;18.83;81.36;101464.84;5065030;28;20077;-54
2022/08/22 03:19:41;;;;;;;9.40;3.22;;;;;;;18.88;81.05;101467.50;5070121;28;20109;-57
2022/08/22 03:22:33;;;;;;;9.80;3.50;;;;;;;18.92;80.41;101467.69;5094045;28;20071;-53
2022/08/22 03:25:21;;;;;;;8.65;3.55;;;;;;;18.94;80.64;101470.97;5093581;28;20047;-57
2022/08/22 03:27:56;;;;;;;7.03;3.03;;;;;;;18.92;80.75;101464.94;5075440;28;20048;-51
2022/08/22 03:30:58;;;;;;;11.57;4.22;;;;;;;18.95;80.53;101469.81;5082544;28;20043;-52
2022/08/22 03:33:29;;;;;;;11.18;3.45;;;;;;;18.96;80.71;101462.38;5075686;28;20036;-54
2022/08/22 03:36:17;;;;;;;11.30;3.70;;;;;;;18.96;80.52;101467.91;5075098;28;20402;-55
2022/08/22 03:39:07;;;;;;;12.50;3.88;;;;;;;18.94;80.80;101463.50;5081541;28;20051;-53
2022/08/22 03:41:51;;;;;;;13.77;4.20;;;;;;;18.88;81.17;101455.63;5093616;28;20059;-53
2022/08/22 03:44:45;;;;;;;9.15;3.80;;;;;;;18.83;81.59;101458.50;5059096;28;20041;-55
2022/08/22 03:47:31;;;;;;;10.45;3.45;;;;;;;18.73;81.91;101454.78;5093076;28;20039;-54
2022/08/22 03:50:17;;;;;;;13.80;4.40;;;;;;;18.71;82.44;101445.19;5093430;28;20044;-53
2022/08/22 03:53:17;;;;;;;15.35;4.32;;;;;;;18.68;82.46;101443.84;5093591;28;20048;-54
2022/08/22 03:56:12;;;;;;;16.90;4.40;;;;;;;18.64;82.86;101448.38;5059076;28;20040;-54
2022/08/22 03:58:56;;;;;;;11.45;4.30;;;;;;;18.58;83.32;101449.59;5070638;28;20531;-54
2022/08/22 04:01:58;;;;;;;16.10;4.20;;;;;;;18.57;83.43;101449.88;5075073;28;20525;-55
2022/08/22 04:05:04;;;;;;;19.40;4.72;;;;;;;18.53;83.80;101452.44;5092063;28;20055;-57
2022/08/22 04:07:40;;;;;;;13.77;4.10;;;;;;;18.50;84.04;101445.59;5082306;28;20495;-56
2022/08/22 04:10:36;;;;;;;15.57;4.45;;;;;;;18.48;84.22;101445.09;5092931;28;20073;-55
2022/08/22 04:13:12;;;;;;;16.13;4.57;;;;;;;18.44;84.38;101441.28;5093354;28;20084;-57
2022/08/22 04:15:59;;;;;;;10.05;3.35;;;;;;;18.45;84.64;101442.13;5090833;28;20048;-56
2022/08/22 04:19:04;;;;;;;10.30;3.70;;;;;;;18.50;84.02;101445.59;5059073;28;20044;-55
2022/08/22 04:21:59;;;;;;;9.45;3.45;;;;;;;18.51;83.96;101452.75;5082880;28;20559;-55
2022/08/22 04:25:02;;;;;;;15.38;3.72;;;;;;;18.55;83.72;101458.47;5092750;28;20040;-57
2022/08/22 04:27:48;;;;;;;10.00;3.75;;;;;;;18.54;83.73;101456.84;5075453;28;20044;-56
2022/08/22 04:30:37;;;;;;;8.77;3.83;;;;;;;18.50;84.13;101456.63;5074912;28;20101;-55
2022/08/22 04:33:28;;;;;;;11.88;4.20;;;;;;;18.52;83.90;101461.88;5092996;28;20085;-55
2022/08/22 04:36:20;;;;;;;11.95;4.32;;;;;;;18.55;83.73;101454.91;5073885;28;20040;-50
2022/08/22 04:39:05;;;;;;;14.10;3.88;;;;;;;18.52;84.00;101465.44;5080903;28;20040;-53
2022/08/22 04:42:05;;;;;;;8.88;4.07;;;;;;;18.56;83.82;101465.63;5074996;28;20044;-55
2022/08/22 04:45:28;;;;;;;10.02;3.78;;;;;;;18.57;83.72;101461.75;5077444;28;20051;-54
2022/08/22 04:48:17;;;;;;;11.90;4.20;;;;;;;18.54;83.68;101454.06;5084877;28;20125;-54
2022/08/22 04:51:04;;;;;;;10.80;4.45;;;;;;;18.51;84.03;101454.69;5081235;28;20028;-52
2022/08/22 04:53:51;;;;;;;10.15;4.43;;;;;;;18.53;83.64;101455.22;5074641;28;20055;-50
2022/08/22 04:56:24;;;;;;;10.40;4.15;;;;;;;18.47;84.19;101456.41;5092332;28;20040;-53
2022/08/22 04:59:02;;;;;;;9.73;3.90;;;;;;;18.41;84.77;101463.19;5092891;28;20032;-58
2022/08/22 05:01:48;;;;;;;11.10;3.90;;;;;;;18.40;85.09;101461.53;5085443;28;20101;-56
2022/08/22 05:04:39;;;;;;;12.00;4.03;;;;;;;18.45;84.96;101469.72;5074725;28;20036;-58
2022/08/22 05:07:16;;;;;;;11.43;4.22;;;;;;;18.49;84.69;101476.25;5073865;28;20041;-58
2022/08/22 05:09:55;;;;;;;11.32;4.50;;;;;;;18.50;84.68;101477.91;5092850;28;20441;-57
2022/08/22 05:12:31;;;;;;;8.95;3.78;;;;;;;18.47;84.69;101478.50;5074391;28;20040;-56
2022/08/22 05:15:13;;;;;;;11.50;4.60;;;;;;;18.46;85.08;101482.41;5075063;28;20555;-57
2022/08/22 05:17:47;;;;;;;10.45;4.15;;;;;;;18.46;85.19;101485.16;5074104;28;20051;-57
2022/08/22 05:20:20;;;;;;;10.85;4.57;;;;;;;18.44;85.57;101481.88;5054232;28;20041;-57
2022/08/22 05:22:53;;;;;;;12.80;4.43;;;;;;;18.42;85.72;101475.84;5060947;28;20063;-56
2022/08/22 05:25:31;;;;;;;8.27;3.97;;;;;;;18.37;85.90;101476.75;5092188;28;20056;-55
2022/08/22 05:28:21;;;;;;;12.18;4.45;;;;;;;18.36;86.43;101479.84;5070860;28;20498;-55
2022/08/22 05:30:50;;;;;;;10.85;4.50;;;;;;;18.35;86.65;101480.94;5074954;28;20497;-54
2022/08/22 05:33:29;;;;;;;11.65;4.43;;;;;;;18.37;86.81;101481.47;5074621;28;20044;-56
2022/08/22 05:36:24;;;;;;;12.18;4.65;;;;;;;18.42;86.41;101476.66;5092294;28;20097;-55
2022/08/22 05:39:09;;;;;;;9.37;4.20;;;;;;;18.47;86.27;101489.53;5090333;28;20079;-55
2022/08/22 05:41:38;;;;;;;12.67;4.10;;;;;;;18.50;86.16;101481.47;5076255;28;20363;-58
2022/08/22 05:44:22;;;;;;;13.13;4.60;;;;;;;18.53;85.77;101494.66;5078081;28;20055;-53
2022/08/22 05:46:53;;;;;;;15.65;4.65;;;;;;;18.58;85.71;101503.97;5076668;28;20039;-53
2022/08/22 05:49:53;;;;;;;15.30;4.70;;;;;;;18.56;85.75;101495.16;5094610;28;20101;-53
2022/08/22 05:52:48;;;;;;;12.38;4.72;;;;;;;18.51;86.24;101501.59;5089331;28;20097;-54
2022/08/22 05:55:54;;;;;;;13.88;5.18;;;;;;;18.51;86.51;101496.09;5093724;28;20051;-52
2022/08/22 05:58:40;;;;;;;14.70;4.88;;;;;;;18.48;86.87;101491.19;5039771;28;20089;-56
2022/08/22 06:01:21;;;;;;;13.05;4.78;;;;;;;18.47;87.08;101486.78;5094300;28;20048;-53
2022/08/22 06:04:19;;;;;;;14.23;4.63;;;;;;;18.45;87.45;101481.56;5095209;28;20036;-52
2022/08/22 06:06:54;;;;;;;14.20;5.40;;;;;;;18.47;87.44;101489.53;5091346;28;20036;-49
2022/08/22 06:09:47;;;;;;;13.57;4.53;;;;;;;18.51;87.43;101490.56;5076465;28;20040;-52
2022/08/22 06:12:38;;;;;;;17.35;5.80;;;;;;;18.51;87.82;101490.56;5088896;28;20506;-52
2022/08/22 06:15:21;;;;;;;15.57;5.18;;;;;;;18.48;87.96;101496.72;5093036;28;20032;-55
2022/08/22 06:18:03;;;;;;;10.93;4.32;;;;;;;18.50;88.00;101488.94;4369299;28;10020701;-55
2022/08/22 06:20:38;;;;;;;11.75;5.07;;;;;;;18.55;87.63;101497.13;5090017;28;20051;-56
2022/08/22 06:23:07;;;;;;;11.18;5.38;;;;;;;18.55;87.85;101493.56;5092354;28;20047;-52
2022/08/22 06:25:37;;;;;;;11.13;4.45;;;;;;;18.53;87.88;101500.19;5072265;28;20052;-55
2022/08/22 06:28:22;;;;;;;15.60;6.50;;;;;;;18.53;88.44;101502.13;5089188;28;20048;-52
2022/08/22 06:30:52;;;;;;;13.02;5.40;;;;;;;18.54;88.60;101501.00;5072497;28;20093;-50
2022/08/22 06:33:25;;;;;;;14.18;5.80;;;;;;;18.56;88.54;101509.78;5072935;28;20040;-56
2022/08/22 06:39:19;;;;;;;16.33;5.68;;;;;;;18.57;88.21;101513.34;5076075;28;20048;-55
2022/08/22 06:41:52;;;;;;;15.00;5.95;;;;;;;18.52;88.71;101515.13;5073016;28;20132;-53
2022/08/22 06:44:30;;;;;;;16.00;6.38;;;;;;;18.51;88.98;101515.41;5091384;28;20046;-55
2022/08/22 06:47:00;;;;;;;13.18;4.70;;;;;;;18.53;88.94;101518.69;5072249;28;20054;-53
2022/08/22 06:49:29;;;;;;;14.30;5.22;;;;;;;18.58;88.72;101515.81;5090808;28;20036;-51
2022/08/22 06:52:00;;;;;;;15.93;5.30;;;;;;;18.66;88.46;101528.91;5072670;28;20044;-52
2022/08/22 06:54:34;;;;;;;13.48;5.43;;;;;;;18.69;88.27;101519.22;5073047;28;20069;-52
2022/08/22 06:57:03;;;;;;;10.70;5.07;;;;;;;18.73;87.86;101518.28;5089761;28;20408;-53
2022/08/22 06:59:34;;;;;;;13.75;5.78;;;;;;;18.79;87.78;101523.75;5072784;28;20529;-53
2022/08/22 07:02:22;;;;;;;18.70;6.93;;;;;;;18.77;88.19;101520.47;5072729;28;20043;-53
2022/08/22 07:04:50;;;;;;;15.45;6.55;;;;;;;18.72;88.47;101522.16;5073021;28;20047;-53
2022/08/22 07:07:19;;;;;;;13.25;5.15;;;;;;;18.74;88.46;101522.69;5088529;28;20064;-58
2022/08/22 07:09:50;;;;;;;11.10;4.70;;;;;;;18.83;87.94;101522.00;5089325;28;20047;-53
2022/08/22 07:12:19;;;;;;;21.52;7.25;;;;;;;18.89;87.93;101523.53;5072462;28;20036;-50
2022/08/22 07:14:50;;;;;;;15.55;6.55;;;;;;;18.89;88.10;101527.13;5072407;28;20387;-49
2022/08/22 07:17:24;;;;;;;15.75;6.13;;;;;;;18.86;88.22;101530.50;5087882;28;20384;-49
2022/08/22 07:19:58;;;;;;;13.00;6.53;;;;;;;18.83;88.78;101530.28;5072351;28;20510;-52
2022/08/22 07:22:33;;;;;;;11.57;6.20;;;;;;;18.78;89.08;101528.44;5090286;28;20395;-48
2022/08/22 07:25:09;;;;;;;14.80;6.20;;;;;;;18.77;89.50;101526.00;5088964;28;20047;-55
2022/08/22 07:27:46;;;;;;;;;;;;;;;18.81;88.99;101535.28;5072182;28;20047;-54
2022/08/22 07:30:17;;;;;;;16.30;6.28;;;;;;;18.86;89.03;101527.75;5060550;28;19969;-57
2022/08/22 07:32:57;;;;;;;14.38;7.18;;;;;;;18.91;88.70;101532.34;5073394;28;20532;-58
2022/08/22 07:35:51;;;;;;;15.23;6.40;;;;;;;18.91;88.69;101526.81;5072794;28;20096;-56
2022/08/22 07:38:41;;;;;;;19.95;7.80;;;;;;;18.93;89.27;101525.38;5070262;28;20051;-55
2022/08/22 07:41:21;;;;;;;26.00;9.00;;;;;;;18.94;89.21;101528.97;5073236;28;20036;-53
2022/08/22 07:43:52;;;;;;;53.35;15.82;;;;;;;18.98;88.98;101521.69;5089564;28;20047;-51
2022/08/22 07:46:34;;;;;;;21.77;8.35;;;;;;;19.06;88.11;101526.50;5071363;28;20048;-55
2022/08/22 07:49:20;;;;;;;31.35;9.25;;;;;;;19.10;88.23;101519.22;5088190;28;20044;-52
2022/08/22 07:52:01;;;;;;;20.38;8.23;;;;;;;19.12;88.02;101519.75;5074098;28;20096;-52
2022/08/22 07:54:49;;;;;;;29.48;9.43;;;;;;;19.18;88.02;101519.63;5072733;28;20509;-55
2022/08/22 07:57:27;;;;;;;18.88;8.60;;;;;;;19.24;88.76;101521.97;5075851;28;20040;-54
2022/08/22 07:59:57;;;;;;;17.83;7.68;;;;;;;19.23;88.39;101506.50;5093303;28;20096;-56
2022/08/22 08:02:25;;;;;;;16.15;7.32;;;;;;;19.23;88.93;101511.22;5079369;28;20036;-55
2022/08/22 08:04:55;;;;;;;20.17;7.85;;;;;;;19.24;89.04;101508.16;5076720;28;20064;-56
2022/08/22 08:07:27;;;;;;;20.88;8.50;;;;;;;19.24;88.80;101518.38;5078471;28;20051;-55
2022/08/22 08:10:07;;;;;;;16.95;8.00;;;;;;;19.23;89.58;101516.75;5077495;28;20044;-54
2022/08/22 08:12:43;;;;;;;17.30;8.05;;;;;;;19.24;89.11;101512.84;5061619;28;20047;-56
2022/08/22 08:15:25;;;;;;;19.48;6.88;;;;;;;19.32;88.48;101509.38;5078907;28;20043;-52
2022/08/22 08:18:00;;;;;;;13.73;6.80;;;;;;;19.37;88.40;101498.19;5074749;28;20047;-54
2022/08/22 08:20:29;;;;;;;17.23;7.75;;;;;;;19.44;88.45;101501.34;5075096;28;20571;-53
2022/08/22 08:22:58;;;;;;;16.05;6.32;;;;;;;19.50;88.31;101494.56;5092812;28;20502;-55
2022/08/22 08:25:28;;;;;;;16.95;7.45;;;;;;;19.57;87.08;101494.13;5092477;28;20039;-53
2022/08/22 08:30:56;;;;;;;21.67;8.25;;;;;;;19.66;87.04;101485.94;5060992;28;20044;-58
2022/08/22 08:33:27;;;;;;;16.75;7.38;;;;;;;19.71;86.22;101483.88;5075139;28;20077;-53
2022/08/22 08:36:17;;;;;;;18.00;6.95;;;;;;;19.76;85.70;101485.72;5091405;28;20032;-51
2022/08/22 08:39:01;;;;;;;17.23;7.28;;;;;;;19.82;85.51;101486.38;5051040;28;20096;-53
2022/08/22 08:41:57;;;;;;;17.52;6.72;;;;;;;19.89;84.86;101478.47;5092893;28;20047;-54
2022/08/22 08:44:30;;;;;;;;;;;;;;;19.94;84.16;101476.41;5092780;28;20043;-49
2022/08/22 08:47:33;;;;;;;16.27;6.93;;;;;;;19.97;83.68;101484.06;5092098;28;19920;-56
2022/08/22 08:50:13;;;;;;;19.85;7.60;;;;;;;20.03;83.15;101478.41;5092891;28;20039;-53
2022/08/22 08:52:41;;;;;;;16.15;5.32;;;;;;;20.08;83.00;101476.31;5075111;28;20036;-58
2022/08/22 08:55:38;;;;;;;18.00;6.05;;;;;;;20.25;81.94;101475.59;5092079;28;20036;-52
2022/08/22 08:58:11;;;;;;;17.23;5.70;;;;;;;20.41;80.79;101476.81;5092611;28;20059;-53
2022/08/22 09:01:24;;;;;;;17.05;6.70;;;;;;;20.46;78.11;101469.50;5092957;28;20048;-55
2022/08/22 09:04:16;;;;;;;15.75;6.32;;;;;;;20.51;77.23;101472.13;5074413;28;20036;-54
2022/08/22 09:07:34;;;;;;;17.23;5.85;;;;;;;20.57;78.15;101473.66;5091791;28;20044;-58
2022/08/22 09:10:05;;;;;;;15.52;6.13;;;;;;;20.55;77.58;101470.38;5049714;28;20052;-55
2022/08/22 09:12:39;;;;;;;16.02;6.65;;;;;;;20.54;77.48;101460.41;5092488;28;20036;-54
2022/08/22 09:15:43;;;;;;;14.52;6.15;;;;;;;20.58;75.53;101462.25;5094551;28;20040;-57
2022/08/22 09:18:31;;;;;;;15.02;4.80;;;;;;;20.66;73.12;101462.59;5089297;28;20093;-55
2022/08/22 09:21:11;;;;;;;12.75;4.53;;;;;;;20.77;70.90;101458.41;5096392;28;20040;-55
2022/08/22 09:24:17;;;;;;;11.15;3.80;;;;;;;20.79;69.67;101464.44;5078744;28;20044;-58
2022/08/22 09:26:48;;;;;;;10.63;3.92;;;;;;;20.78;68.54;101452.56;5046949;28;20048;-57
2022/08/22 09:29:38;;;;;;;12.68;3.80;;;;;;;20.75;64.35;101461.50;5031002;28;20045;-55
2022/08/22 09:32:41;;;;;;;14.05;4.32;;;;;;;20.76;62.98;101457.59;5067005;28;20058;-57
2022/08/22 09:35:25;;;;;;;10.23;3.38;;;;;;;20.77;63.32;101464.75;5095734;28;20041;-58
2022/08/22 09:38:01;;;;;;;10.85;3.45;;;;;;;20.77;63.55;101459.22;5095308;28;20109;-56
2022/08/22 09:40:52;;;;;;;14.07;4.20;;;;;;;20.78;62.35;101460.88;5095870;28;20173;-55
2022/08/22 09:43:33;;;;;;;14.50;3.97;;;;;;;20.82;62.33;101461.03;5095857;28;20499;-57
2022/08/22 09:46:13;;;;;;;13.25;3.60;;;;;;;20.87;62.84;101460.88;5078155;28;20044;-56
2022/08/22 09:48:51;;;;;;;11.82;3.30;;;;;;;20.91;63.86;101463.84;5077348;28;20040;-53
2022/08/22 09:51:33;;;;;;;13.60;3.83;;;;;;;20.92;63.83;101465.44;5095918;28;20044;-56
2022/08/22 09:54:14;;;;;;;12.15;3.60;;;;;;;20.91;64.29;101463.84;5077837;28;20494;-54
2022/08/22 09:57:07;;;;;;;16.95;4.05;;;;;;;20.93;65.34;101456.03;5095023;28;20063;-57
2022/08/22 09:59:48;;;;;;;12.05;4.05;;;;;;;20.96;64.55;101458.13;5095683;28;20402;-54
2022/08/22 10:02:39;;;;;;;13.00;4.25;;;;;;;20.99;64.47;101455.53;5095726;28;20036;-56
2022/08/22 10:05:54;;;;;;;11.93;4.55;;;;;;;21.04;65.85;101449.81;5077120;28;20028;-57
2022/08/22 10:08:31;;;;;;;12.50;4.07;;;;;;;21.13;63.79;101447.06;5051987;28;20520;-54
2022/08/22 10:11:06;;;;;;;13.25;4.53;;;;;;;21.20;66.04;101444.63;5047671;28;20048;-55
2022/08/22 10:13:58;;;;;;;15.10;5.10;;;;;;;21.31;66.56;101449.84;5077685;28;20055;-54
2022/08/22 10:16:49;;;;;;;13.00;4.15;;;;;;;21.33;66.03;101444.78;5081282;28;20404;-55
2022/08/22 10:19:31;;;;;;;8.45;3.45;;;;;;;21.32;64.34;101434.88;5094984;28;20490;-56
2022/08/22 10:22:38;;;;;;;12.93;3.85;;;;;;;21.38;62.48;101436.31;5057287;28;20044;-55
2022/08/22 10:25:21;;;;;;;13.52;3.60;;;;;;;21.46;63.05;101436.34;5028393;28;20044;-50
2022/08/22 10:28:13;;;;;;;9.75;3.30;;;;;;;21.52;63.32;101434.22;5092410;28;20120;-51
2022/08/22 10:31:07;;;;;;;10.13;3.50;;;;;;;21.64;60.00;101431.59;5091493;28;20040;-56
2022/08/22 10:33:41;;;;;;;10.25;2.90;;;;;;;21.70;59.43;101433.06;5079552;28;20058;-53
2022/08/22 10:36:29;;;;;;;;;;;;;;;21.72;63.72;101426.34;5075411;28;20047;-54
2022/08/22 10:38:58;;;;;;;10.02;3.40;;;;;;;21.72;58.79;101426.34;5084045;28;19920;-55
2022/08/22 10:41:57;;;;;;;11.52;3.17;;;;;;;21.74;58.46;101427.66;5076997;28;20051;-57
2022/08/22 10:45:06;;;;;;;11.48;3.58;;;;;;;21.77;57.74;101424.25;5094580;28;20099;-54
2022/08/22 10:47:40;;;;;;;15.02;3.58;;;;;;;21.80;57.61;101428.31;5090887;28;20052;-53
2022/08/22 10:50:22;;;;;;;12.45;3.83;;;;;;;21.87;57.62;101417.53;5076918;28;20047;-53
2022/08/22 10:56:38;;;;;;;14.63;3.67;;;;;;;21.92;56.91;101415.38;5020922;28;20502;-56
2022/08/22 10:59:09;;;;;;;;;;;;;;;21.92;57.12;101411.81;5019993;28;20045;-51
2022/08/22 11:01:50;;;;;;;13.88;3.25;;;;;;;21.97;55.89;101405.25;5075305;28;19920;-55
2022/08/22 11:04:53;;;;;;;13.40;3.40;;;;;;;21.98;56.96;101413.25;5094194;28;20558;-53
2022/08/22 11:07:42;;;;;;;12.20;3.28;;;;;;;22.02;56.58;101417.00;5093245;28;20093;-53
2022/08/22 11:10:44;;;;;;;10.70;3.22;;;;;;;22.11;56.56;101406.69;5094374;28;20517;-56
2022/08/22 11:13:16;;;;;;;9.43;3.30;;;;;;;22.22;53.57;101403.56;5094071;28;20047;-54
2022/08/22 11:16:10;;;;;;;10.85;3.47;;;;;;;22.32;53.26;101405.97;5092944;28;20048;-54
2022/08/22 11:18:49;;;;;;;14.50;3.88;;;;;;;22.32;53.14;101404.03;5093122;28;20398;-54
2022/08/22 11:22:09;;;;;;;15.38;3.22;;;;;;;22.34;52.84;101398.13;5083316;28;20032;-53
2022/08/22 11:24:53;;;;;;;;;;;;;;;22.40;52.45;101402.34;5063521;28;20494;-49
2022/08/22 11:27:36;;;;;;;10.48;3.30;;;;;;;22.36;53.09;101403.34;5075814;28;19973;-57
2022/08/22 11:30:36;;;;;;;9.20;3.05;;;;;;;22.35;54.18;101402.53;5097656;28;20036;-55
2022/08/22 11:33:23;;;;;;;11.35;3.10;;;;;;;22.31;52.42;101402.38;5092929;28;20409;-58
2022/08/22 11:36:37;;;;;;;13.45;3.70;;;;;;;22.31;52.15;101401.56;5087588;28;20046;-50
2022/08/22 11:39:08;;;;;;;8.75;3.03;;;;;;;22.33;52.46;101402.06;5075144;28;20047;-53
2022/08/22 11:42:00;;;;;;;10.43;3.50;;;;;;;22.30;54.62;101397.97;5090419;28;20039;-56
2022/08/22 11:44:44;;;;;;;11.75;3.58;;;;;;;22.27;51.06;101397.81;5092808;28;20036;-55
2022/08/22 11:47:22;;;;;;;8.32;3.05;;;;;;;22.35;50.45;101394.22;5064242;28;20548;-54
2022/08/22 11:50:08;;;;;;;;;;;;;;;22.40;50.32;101388.47;5076416;28;20882;-51
2022/08/22 11:52:49;;;;;;;10.30;3.25;;;;;;;22.42;50.78;101388.94;5076208;28;19920;-56
2022/08/22 11:55:35;;;;;;;11.43;3.47;;;;;;;22.46;51.37;101389.06;5091120;28;20036;-56
2022/08/22 11:58:18;;;;;;;10.07;3.40;;;;;;;22.49;52.83;101389.22;5075441;28;20101;-52
2022/08/22 12:01:24;;;;;;;9.30;3.40;;;;;;;22.50;51.84;101393.63;5093258;28;20418;-56
2022/08/22 12:04:15;;;;;;;10.70;3.33;;;;;;;22.52;50.98;101391.31;5086437;28;20056;-53
2022/08/22 12:06:58;;;;;;;8.10;3.08;;;;;;;22.50;51.10;101385.28;5058935;28;20058;-53
2022/08/22 12:09:56;;;;;;;10.23;3.47;;;;;;;22.53;50.86;101392.13;5093206;28;20063;-52
2022/08/22 12:13:02;;;;;;;9.70;3.03;;;;;;;22.62;49.74;101384.56;5092762;28;20410;-56
2022/08/22 12:16:03;;;;;;;8.35;2.70;;;;;;;22.62;51.93;101394.88;5074862;28;20499;-53
2022/08/22 12:18:39;;;;;;;9.20;2.83;;;;;;;22.65;49.62;101383.88;5075336;28;20040;-53
2022/08/22 12:21:16;;;;;;;9.18;3.08;;;;;;;22.69;50.13;101381.28;5092652;28;20085;-53
2022/08/22 12:23:55;;;;;;;12.70;3.47;;;;;;;22.75;49.96;101379.91;5092674;28;20043;-53
2022/08/22 12:26:50;;;;;;;9.27;2.92;;;;;;;22.77;51.74;101388.72;5074872;28;20082;-52
2022/08/22 12:29:29;;;;;;;8.45;2.60;;;;;;;22.78;49.72;101384.81;5075060;28;20047;-56
2022/08/22 12:32:27;;;;;;;11.20;3.33;;;;;;;22.77;49.77;101383.97;5081300;28;20044;-56
2022/08/22 12:35:19;;;;;;;9.68;3.45;;;;;;;22.76;48.92;101376.00;5092923;28;20152;-51
2022/08/22 12:38:19;;;;;;;7.03;2.95;;;;;;;22.75;48.29;101369.63;5092569;28;20077;-53
2022/08/22 12:41:05;;;;;;;13.52;3.33;;;;;;;22.77;48.07;101372.84;5092889;28;20044;-53
2022/08/22 12:44:12;;;;;;;9.88;3.08;;;;;;;22.79;48.90;101374.50;5074024;28;20108;-55
2022/08/22 12:47:02;;;;;;;9.20;2.88;;;;;;;22.80;49.08;101367.78;5075641;28;20040;-57
2022/08/22 12:50:00;;;;;;;10.82;3.08;;;;;;;22.84;48.45;101365.97;5093347;28;20036;-56
2022/08/22 12:52:44;;;;;;;11.40;3.08;;;;;;;22.91;47.88;101371.78;5078960;28;20104;-54